Terminal Aerodrome Forecast
Issued by NWS Jackson, KY

Home | Current Version | Previous Version | Text Only | Print | Product List | Glossary On
Versions: 1 2 3 4 5 6 7 8 9 10 11 12 13 14 15 16 17 18 19 20 21 22
000
FTUS43 KJKL 240155 AAA
TAFLOZ
TAF AMD
KLOZ 240155Z 2402/2424 VRB06KT 6SM BR VCSH SCT003 BKN050
     FM240600 VRB06KT 3SM BR SCT003 BKN080
     FM241000 VRB06KT 3SM BR SCT001 BKN008
     FM241100 VRB06KT 3SM -SHRA BR VCTS SCT001 OVC015CB
     FM241300 VRB06KT 3SM BR VCTS SCT005CB OVC020CB
     FM241800 20005KT 3SM SHRA SCT008 OVC015=

USA.gov is the U.S. government's official web portal to all federal, state and local government web resources and services.